Alexandria, Nebraska
Current Conditions -  °F | °C
As of 12:15 AM on Wednesday 28 Jan 2015 (Local Time) from KHJH Reporting Station
Clear Clear  
Wind Chill: 33°   Ceiling: Unl
Heat Index: 33°   Visibility: 10mi
Dew Point: 28°   Wind: 0mph
Humidity: 82%   Direction: NA
Pressure: 29.91"   Gusts: NA
Location:  40.25°N, 97.39°W
Report Text: KHJH 280615Z AUTO 00000KT 10SM CLR 00/M02 A2991 RMK AO2 T00041024
Loading
Personal Weather Stations






























Interactive Weather Map New forecast layout! Learn more

10-Day Weather Forecast

Advertisements
Track Severe Weather on mobile